sensor_id;sensor_type;location;lat;lon;timestamp;P1;P2;P0
65556;PMS3003;52200;53.490;14.376;2023-04-25T00:01:20;8.80;3.80;2.00
65556;PMS3003;52200;53.490;14.376;2023-04-25T00:03:46;9.00;3.60;2.00
65556;PMS3003;52200;53.490;14.376;2023-04-25T00:06:12;8.25;3.75;2.00
65556;PMS3003;52200;53.490;14.376;2023-04-25T00:08:38;9.00;3.00;1.50
65556;PMS3003;52200;53.490;14.376;2023-04-25T00:11:03;9.00;3.25;2.00
65556;PMS3003;52200;53.490;14.376;2023-04-25T00:13:29;7.20;2.40;1.80
65556;PMS3003;52200;53.490;14.376;2023-04-25T00:15:55;7.50;3.00;2.00
65556;PMS3003;52200;53.490;14.376;2023-04-25T00:18:21;6.60;2.80;1.00
65556;PMS3003;52200;53.490;14.376;2023-04-25T00:20:47;7.00;3.00;2.00
65556;PMS3003;52200;53.490;14.376;2023-04-25T00:23:13;7.40;3.00;1.60
65556;PMS3003;52200;53.490;14.376;2023-04-25T00:25:43;7.40;3.20;2.00
65556;PMS3003;52200;53.490;14.376;2023-04-25T00:28:09;8.00;3.00;2.00
65556;PMS3003;52200;53.490;14.376;2023-04-25T00:30:35;8.40;2.80;1.40
65556;PMS3003;52200;53.490;14.376;2023-04-25T00:33:01;8.00;2.25;1.00
65556;PMS3003;52200;53.490;14.376;2023-04-25T00:35:26;6.75;2.25;1.00
65556;PMS3003;52200;53.490;14.376;2023-04-25T00:37:52;7.00;3.00;2.00
65556;PMS3003;52200;53.490;14.376;2023-04-25T00:40:17;8.50;3.75;1.00
65556;PMS3003;52200;53.490;14.376;2023-04-25T00:42:43;8.50;4.00;1.25
65556;PMS3003;52200;53.490;14.376;2023-04-25T00:45:09;8.60;3.00;1.00
65556;PMS3003;52200;53.490;14.376;2023-04-25T00:47:39;8.00;3.00;1.60
65556;PMS3003;52200;53.490;14.376;2023-04-25T00:50:05;10.00;3.00;2.00
65556;PMS3003;52200;53.490;14.376;2023-04-25T00:52:31;6.80;2.00;1.00
65556;PMS3003;52200;53.490;14.376;2023-04-25T00:54:57;8.80;3.40;2.00
65556;PMS3003;52200;53.490;14.376;2023-04-25T00:57:24;7.40;2.80;1.40
65556;PMS3003;52200;53.490;14.376;2023-04-25T00:59:50;8.20;3.20;1.20
65556;PMS3003;52200;53.490;14.376;2023-04-25T01:02:17;8.20;3.40;1.40
65556;PMS3003;52200;53.490;14.376;2023-04-25T01:04:42;8.00;3.00;1.25
65556;PMS3003;52200;53.490;14.376;2023-04-25T01:07:08;8.00;4.00;2.00
65556;PMS3003;52200;53.490;14.376;2023-04-25T01:09:35;9.00;5.20;2.00
65556;PMS3003;52200;53.490;14.376;2023-04-25T01:12:00;7.00;3.00;1.75
65556;PMS3003;52200;53.490;14.376;2023-04-25T01:14:26;8.80;3.60;2.00
65556;PMS3003;52200;53.490;14.376;2023-04-25T01:16:52;9.40;3.40;2.00
65556;PMS3003;52200;53.490;14.376;2023-04-25T01:19:20;8.80;4.80;2.00
65556;PMS3003;52200;53.490;14.376;2023-04-25T01:21:46;9.00;3.75;2.00
65556;PMS3003;52200;53.490;14.376;2023-04-25T01:24:12;8.00;3.25;2.00
65556;PMS3003;52200;53.490;14.376;2023-04-25T01:26:37;8.60;3.00;2.00
65556;PMS3003;52200;53.490;14.376;2023-04-25T01:29:04;8.80;4.20;1.00
65556;PMS3003;52200;53.490;14.376;2023-04-25T01:31:31;7.80;3.40;2.40
65556;PMS3003;52200;53.490;14.376;2023-04-25T01:33:58;9.00;4.80;2.00
65556;PMS3003;52200;53.490;14.376;2023-04-25T01:36:23;10.25;5.50;2.50
65556;PMS3003;52200;53.490;14.376;2023-04-25T01:38:48;10.75;6.25;3.00
65556;PMS3003;52200;53.490;14.376;2023-04-25T01:41:14;10.80;7.00;3.00
65556;PMS3003;52200;53.490;14.376;2023-04-25T01:43:42;11.20;4.40;2.40
65556;PMS3003;52200;53.490;14.376;2023-04-25T01:46:07;12.25;7.50;2.00
65556;PMS3003;52200;53.490;14.376;2023-04-25T01:48:33;11.50;7.00;3.25
65556;PMS3003;52200;53.490;14.376;2023-04-25T01:50:58;11.25;6.25;2.25
65556;PMS3003;52200;53.490;14.376;2023-04-25T01:53:24;11.75;6.25;3.00
65556;PMS3003;52200;53.490;14.376;2023-04-25T01:55:49;9.50;6.00;2.00
65556;PMS3003;52200;53.490;14.376;2023-04-25T01:58:15;12.00;7.00;3.00
65556;PMS3003;52200;53.490;14.376;2023-04-25T02:00:40;12.50;6.50;2.00
65556;PMS3003;52200;53.490;14.376;2023-04-25T02:03:06;10.75;6.75;3.00
65556;PMS3003;52200;53.490;14.376;2023-04-25T02:05:37;10.60;6.60;2.00
65556;PMS3003;52200;53.490;14.376;2023-04-25T02:08:04;9.20;5.60;3.00
65556;PMS3003;52200;53.490;14.376;2023-04-25T02:10:31;12.20;7.00;3.80
65556;PMS3003;52200;53.490;14.376;2023-04-25T02:12:57;12.80;6.20;2.80
65556;PMS3003;52200;53.490;14.376;2023-04-25T02:15:23;12.75;7.00;3.00
65556;PMS3003;52200;53.490;14.376;2023-04-25T02:17:49;10.25;7.00;3.00
65556;PMS3003;52200;53.490;14.376;2023-04-25T02:20:14;13.50;8.00;3.50
65556;PMS3003;52200;53.490;14.376;2023-04-25T02:22:41;11.80;7.40;3.00
65556;PMS3003;52200;53.490;14.376;2023-04-25T02:25:08;10.60;7.00;3.00
65556;PMS3003;52200;53.490;14.376;2023-04-25T02:27:34;9.80;6.20;2.40
65556;PMS3003;52200;53.490;14.376;2023-04-25T02:30:00;12.25;7.50;3.00
65556;PMS3003;52200;53.490;14.376;2023-04-25T02:32:26;10.00;6.00;3.00
65556;PMS3003;52200;53.490;14.376;2023-04-25T02:34:52;10.40;7.00;2.40
65556;PMS3003;52200;53.490;14.376;2023-04-25T02:37:17;10.00;4.00;2.00
65556;PMS3003;52200;53.490;14.376;2023-04-25T02:39:42;12.00;7.00;3.00
65556;PMS3003;52200;53.490;14.376;2023-04-25T02:42:08;14.00;9.00;3.50
65556;PMS3003;52200;53.490;14.376;2023-04-25T02:44:33;9.25;6.25;3.00
65556;PMS3003;52200;53.490;14.376;2023-04-25T02:46:59;9.00;4.50;3.00
65556;PMS3003;52200;53.490;14.376;2023-04-25T02:49:24;14.25;7.50;4.00
65556;PMS3003;52200;53.490;14.376;2023-04-25T02:51:50;11.00;5.50;2.50
65556;PMS3003;52200;53.490;14.376;2023-04-25T02:54:15;12.00;5.00;2.00
65556;PMS3003;52200;53.490;14.376;2023-04-25T02:56:41;13.50;8.00;3.00
65556;PMS3003;52200;53.490;14.376;2023-04-25T02:59:06;10.00;7.00;2.25
65556;PMS3003;52200;53.490;14.376;2023-04-25T03:01:31;13.25;7.00;3.00
65556;PMS3003;52200;53.490;14.376;2023-04-25T03:03:57;10.75;6.25;3.00
65556;PMS3003;52200;53.490;14.376;2023-04-25T03:06:22;12.00;7.25;3.00
65556;PMS3003;52200;53.490;14.376;2023-04-25T03:08:48;12.00;8.00;4.00
65556;PMS3003;52200;53.490;14.376;2023-04-25T03:11:13;13.00;8.00;3.00
65556;PMS3003;52200;53.490;14.376;2023-04-25T03:13:39;12.50;7.50;2.50
65556;PMS3003;52200;53.490;14.376;2023-04-25T03:16:04;12.75;7.25;3.25
65556;PMS3003;52200;53.490;14.376;2023-04-25T03:18:30;10.20;6.20;3.40
65556;PMS3003;52200;53.490;14.376;2023-04-25T03:20:55;12.00;7.00;4.00
65556;PMS3003;52200;53.490;14.376;2023-04-25T03:23:21;12.50;6.25;4.00
65556;PMS3003;52200;53.490;14.376;2023-04-25T03:25:46;13.75;8.75;4.00
65556;PMS3003;52200;53.490;14.376;2023-04-25T03:28:12;10.25;7.00;3.75
65556;PMS3003;52200;53.490;14.376;2023-04-25T03:30:37;11.50;7.00;2.75
65556;PMS3003;52200;53.490;14.376;2023-04-25T03:33:03;9.25;6.25;3.00
65556;PMS3003;52200;53.490;14.376;2023-04-25T03:35:28;10.00;6.00;4.00
65556;PMS3003;52200;53.490;14.376;2023-04-25T03:37:54;9.50;6.00;4.00
65556;PMS3003;52200;53.490;14.376;2023-04-25T03:40:19;9.75;6.75;3.50
65556;PMS3003;52200;53.490;14.376;2023-04-25T03:42:45;13.25;6.75;3.50
65556;PMS3003;52200;53.490;14.376;2023-04-25T03:45:11;13.75;8.75;4.00
65556;PMS3003;52200;53.490;14.376;2023-04-25T03:47:36;10.80;6.80;5.20
65556;PMS3003;52200;53.490;14.376;2023-04-25T03:50:01;15.25;8.75;4.00
65556;PMS3003;52200;53.490;14.376;2023-04-25T03:52:27;14.60;9.00;3.80
65556;PMS3003;52200;53.490;14.376;2023-04-25T03:54:53;11.50;6.25;3.00
65556;PMS3003;52200;53.490;14.376;2023-04-25T03:57:18;13.50;8.50;3.00
65556;PMS3003;52200;53.490;14.376;2023-04-25T03:59:44;9.00;5.00;3.00
65556;PMS3003;52200;53.490;14.376;2023-04-25T04:02:10;13.00;8.00;4.00
65556;PMS3003;52200;53.490;14.376;2023-04-25T04:04:35;10.75;7.00;4.00
65556;PMS3003;52200;53.490;14.376;2023-04-25T04:07:01;13.75;7.50;3.00
65556;PMS3003;52200;53.490;14.376;2023-04-25T04:09:27;12.80;7.20;3.80
65556;PMS3003;52200;53.490;14.376;2023-04-25T04:11:52;14.75;9.25;3.50
65556;PMS3003;52200;53.490;14.376;2023-04-25T04:14:18;11.50;7.00;3.50
65556;PMS3003;52200;53.490;14.376;2023-04-25T04:16:43;12.25;6.50;4.00
65556;PMS3003;52200;53.490;14.376;2023-04-25T04:19:09;15.20;8.00;4.00
65556;PMS3003;52200;53.490;14.376;2023-04-25T04:21:35;10.75;7.00;3.00
65556;PMS3003;52200;53.490;14.376;2023-04-25T04:24:01;12.75;7.50;3.25
65556;PMS3003;52200;53.490;14.376;2023-04-25T04:26:26;12.00;6.50;3.50
65556;PMS3003;52200;53.490;14.376;2023-04-25T04:28:52;12.25;6.25;3.00
65556;PMS3003;52200;53.490;14.376;2023-04-25T04:31:22;13.00;8.20;3.40
65556;PMS3003;52200;53.490;14.376;2023-04-25T04:33:48;12.60;7.60;3.00
65556;PMS3003;52200;53.490;14.376;2023-04-25T04:36:14;13.75;8.00;4.00
65556;PMS3003;52200;53.490;14.376;2023-04-25T04:38:40;9.60;6.20;3.20
65556;PMS3003;52200;53.490;14.376;2023-04-25T04:41:06;12.50;6.50;3.50
65556;PMS3003;52200;53.490;14.376;2023-04-25T04:43:31;12.75;7.50;4.00
65556;PMS3003;52200;53.490;14.376;2023-04-25T04:45:58;9.80;4.60;3.40
65556;PMS3003;52200;53.490;14.376;2023-04-25T04:48:25;12.20;7.80;3.00
65556;PMS3003;52200;53.490;14.376;2023-04-25T04:50:51;11.00;7.00;3.25
65556;PMS3003;52200;53.490;14.376;2023-04-25T04:53:16;9.75;4.00;2.00
65556;PMS3003;52200;53.490;14.376;2023-04-25T04:55:42;12.75;7.25;3.75
65556;PMS3003;52200;53.490;14.376;2023-04-25T04:58:08;11.25;7.00;3.25
65556;PMS3003;52200;53.490;14.376;2023-04-25T05:00:33;10.60;7.00;4.20
65556;PMS3003;52200;53.490;14.376;2023-04-25T05:02:59;12.00;7.75;3.00
65556;PMS3003;52200;53.490;14.376;2023-04-25T05:05:24;15.75;7.50;3.50
65556;PMS3003;52200;53.490;14.376;2023-04-25T05:07:50;11.00;7.25;3.75
65556;PMS3003;52200;53.490;14.376;2023-04-25T05:10:16;14.75;8.50;3.00
65556;PMS3003;52200;53.490;14.376;2023-04-25T05:12:43;12.40;7.00;4.00
65556;PMS3003;52200;53.490;14.376;2023-04-25T05:15:08;14.00;7.75;3.50
65556;PMS3003;52200;53.490;14.376;2023-04-25T05:17:34;13.00;7.00;3.00
65556;PMS3003;52200;53.490;14.376;2023-04-25T05:20:00;12.60;7.60;4.00
65556;PMS3003;52200;53.490;14.376;2023-04-25T05:22:26;9.60;4.80;2.80
65556;PMS3003;52200;53.490;14.376;2023-04-25T05:24:52;12.25;8.00;4.00
65556;PMS3003;52200;53.490;14.376;2023-04-25T05:27:17;11.00;7.00;3.00
65556;PMS3003;52200;53.490;14.376;2023-04-25T05:29:44;13.40;7.40;3.00
65556;PMS3003;52200;53.490;14.376;2023-04-25T05:32:09;14.40;7.40;3.00
65556;PMS3003;52200;53.490;14.376;2023-04-25T05:34:35;11.75;7.75;3.00
65556;PMS3003;52200;53.490;14.376;2023-04-25T05:37:01;14.00;8.00;3.60
65556;PMS3003;52200;53.490;14.376;2023-04-25T05:39:26;9.50;5.00;3.00
65556;PMS3003;52200;53.490;14.376;2023-04-25T05:41:52;14.00;8.00;3.00
65556;PMS3003;52200;53.490;14.376;2023-04-25T05:44:18;11.00;7.00;3.00
65556;PMS3003;52200;53.490;14.376;2023-04-25T05:46:44;11.20;6.80;3.00
65556;PMS3003;52200;53.490;14.376;2023-04-25T05:49:09;14.25;8.25;4.00
65556;PMS3003;52200;53.490;14.376;2023-04-25T05:51:35;12.00;7.75;2.50
65556;PMS3003;52200;53.490;14.376;2023-04-25T05:54:00;11.75;6.75;2.50
65556;PMS3003;52200;53.490;14.376;2023-04-25T05:56:26;12.25;7.00;3.00
65556;PMS3003;52200;53.490;14.376;2023-04-25T05:58:51;14.50;8.50;3.50
65556;PMS3003;52200;53.490;14.376;2023-04-25T06:01:17;10.00;7.00;3.00
65556;PMS3003;52200;53.490;14.376;2023-04-25T06:03:42;11.75;5.00;3.00
65556;PMS3003;52200;53.490;14.376;2023-04-25T06:06:08;10.25;6.25;3.00
65556;PMS3003;52200;53.490;14.376;2023-04-25T06:08:34;11.80;8.00;3.20
65556;PMS3003;52200;53.490;14.376;2023-04-25T06:10:59;10.50;4.75;3.00
65556;PMS3003;52200;53.490;14.376;2023-04-25T06:13:25;12.75;7.75;3.25
65556;PMS3003;52200;53.490;14.376;2023-04-25T06:15:50;9.75;5.00;2.00
65556;PMS3003;52200;53.490;14.376;2023-04-25T06:18:16;14.00;7.25;3.00
65556;PMS3003;52200;53.490;14.376;2023-04-25T06:20:41;10.25;4.25;3.00
65556;PMS3003;52200;53.490;14.376;2023-04-25T06:23:07;14.50;8.50;3.00
65556;PMS3003;52200;53.490;14.376;2023-04-25T06:25:32;10.50;6.75;3.00
65556;PMS3003;52200;53.490;14.376;2023-04-25T06:27:58;8.50;4.50;2.50
65556;PMS3003;52200;53.490;14.376;2023-04-25T06:30:23;14.75;7.75;4.25
65556;PMS3003;52200;53.490;14.376;2023-04-25T06:32:51;11.40;7.40;3.60
65556;PMS3003;52200;53.490;14.376;2023-04-25T06:35:17;12.00;5.80;2.80
65556;PMS3003;52200;53.490;14.376;2023-04-25T06:37:43;11.25;7.50;4.00
65556;PMS3003;52200;53.490;14.376;2023-04-25T06:40:09;11.00;7.00;3.00
65556;PMS3003;52200;53.490;14.376;2023-04-25T06:42:34;13.00;8.75;4.00
65556;PMS3003;52200;53.490;14.376;2023-04-25T06:44:59;14.25;6.75;4.00
65556;PMS3003;52200;53.490;14.376;2023-04-25T06:47:25;11.00;6.50;3.50
65556;PMS3003;52200;53.490;14.376;2023-04-25T06:49:51;12.50;7.50;3.75
65556;PMS3003;52200;53.490;14.376;2023-04-25T06:52:16;12.00;7.25;4.00
65556;PMS3003;52200;53.490;14.376;2023-04-25T06:54:43;10.00;5.40;3.00
65556;PMS3003;52200;53.490;14.376;2023-04-25T06:57:08;11.25;6.00;3.50
65556;PMS3003;52200;53.490;14.376;2023-04-25T06:59:34;15.25;8.00;3.25
65556;PMS3003;52200;53.490;14.376;2023-04-25T07:01:59;15.50;8.25;3.25
65556;PMS3003;52200;53.490;14.376;2023-04-25T07:04:25;12.25;7.50;3.50
65556;PMS3003;52200;53.490;14.376;2023-04-25T07:06:50;11.00;6.00;3.50
65556;PMS3003;52200;53.490;14.376;2023-04-25T07:09:16;18.25;9.25;3.75
65556;PMS3003;52200;53.490;14.376;2023-04-25T07:11:41;12.00;7.50;4.00
65556;PMS3003;52200;53.490;14.376;2023-04-25T07:14:07;11.25;8.00;4.00
65556;PMS3003;52200;53.490;14.376;2023-04-25T07:16:32;17.75;10.50;4.75
65556;PMS3003;52200;53.490;14.376;2023-04-25T07:18:58;11.00;7.25;4.00
65556;PMS3003;52200;53.490;14.376;2023-04-25T07:21:24;13.20;9.20;4.00
65556;PMS3003;52200;53.490;14.376;2023-04-25T07:23:50;13.00;8.00;4.40
65556;PMS3003;52200;53.490;14.376;2023-04-25T07:26:16;13.50;9.50;4.25
65556;PMS3003;52200;53.490;14.376;2023-04-25T07:28:41;15.75;9.25;4.50
65556;PMS3003;52200;53.490;14.376;2023-04-25T07:31:08;14.60;9.00;4.40
65556;PMS3003;52200;53.490;14.376;2023-04-25T07:33:33;13.50;8.75;4.25
65556;PMS3003;52200;53.490;14.376;2023-04-25T07:35:59;14.00;8.75;4.50
65556;PMS3003;52200;53.490;14.376;2023-04-25T07:38:25;16.40;9.00;4.00
65556;PMS3003;52200;53.490;14.376;2023-04-25T07:40:51;15.00;10.20;4.00
65556;PMS3003;52200;53.490;14.376;2023-04-25T07:43:17;15.25;8.00;4.00
65556;PMS3003;52200;53.490;14.376;2023-04-25T07:45:42;12.75;7.50;3.50
65556;PMS3003;52200;53.490;14.376;2023-04-25T07:48:08;13.40;8.60;4.00
65556;PMS3003;52200;53.490;14.376;2023-04-25T07:50:35;16.80;10.80;5.40
65556;PMS3003;52200;53.490;14.376;2023-04-25T07:53:00;13.75;9.25;6.75
65556;PMS3003;52200;53.490;14.376;2023-04-25T07:55:26;16.75;9.25;4.00
65556;PMS3003;52200;53.490;14.376;2023-04-25T07:57:51;16.00;11.00;4.75
65556;PMS3003;52200;53.490;14.376;2023-04-25T08:00:17;15.00;10.00;4.25
65556;PMS3003;52200;53.490;14.376;2023-04-25T08:02:43;12.60;8.20;4.80
65556;PMS3003;52200;53.490;14.376;2023-04-25T08:05:08;14.75;8.50;4.50
65556;PMS3003;52200;53.490;14.376;2023-04-25T08:07:36;17.00;11.00;6.00
65556;PMS3003;52200;53.490;14.376;2023-04-25T08:10:04;16.80;9.20;4.20
65556;PMS3003;52200;53.490;14.376;2023-04-25T08:12:30;15.20;9.00;4.20
65556;PMS3003;52200;53.490;14.376;2023-04-25T08:14:56;15.50;9.00;5.00
65556;PMS3003;52200;53.490;14.376;2023-04-25T08:17:21;17.25;10.75;4.75
65556;PMS3003;52200;53.490;14.376;2023-04-25T08:19:46;18.00;12.50;6.00
65556;PMS3003;52200;53.490;14.376;2023-04-25T08:22:12;20.00;14.00;4.50
65556;PMS3003;52200;53.490;14.376;2023-04-25T08:24:38;16.00;9.00;4.75
65556;PMS3003;52200;53.490;14.376;2023-04-25T08:27:03;15.25;10.25;5.75
65556;PMS3003;52200;53.490;14.376;2023-04-25T08:29:28;13.75;7.75;3.75
65556;PMS3003;52200;53.490;14.376;2023-04-25T08:31:54;14.00;9.25;4.00
65556;PMS3003;52200;53.490;14.376;2023-04-25T08:34:19;17.25;10.00;4.25
65556;PMS3003;52200;53.490;14.376;2023-04-25T08:36:45;17.00;10.20;4.20
65556;PMS3003;52200;53.490;14.376;2023-04-25T08:39:11;13.50;8.75;4.00
65556;PMS3003;52200;53.490;14.376;2023-04-25T08:41:37;12.75;8.25;3.00
65556;PMS3003;52200;53.490;14.376;2023-04-25T08:44:03;15.00;7.25;4.00
65556;PMS3003;52200;53.490;14.376;2023-04-25T08:46:29;17.00;9.80;5.00
65556;PMS3003;52200;53.490;14.376;2023-04-25T08:48:57;17.00;10.20;4.20
65556;PMS3003;52200;53.490;14.376;2023-04-25T08:51:25;13.20;6.40;4.00
65556;PMS3003;52200;53.490;14.376;2023-04-25T08:53:53;17.20;6.40;3.40
65556;PMS3003;52200;53.490;14.376;2023-04-25T08:56:19;12.20;7.80;3.00
65556;PMS3003;52200;53.490;14.376;2023-04-25T08:58:48;14.00;7.80;3.00
65556;PMS3003;52200;53.490;14.376;2023-04-25T09:01:15;13.40;8.60;3.60
65556;PMS3003;52200;53.490;14.376;2023-04-25T09:03:43;15.00;8.40;3.40
65556;PMS3003;52200;53.490;14.376;2023-04-25T09:06:10;14.40;5.20;2.40
65556;PMS3003;52200;53.490;14.376;2023-04-25T09:08:36;12.40;8.60;3.00
65556;PMS3003;52200;53.490;14.376;2023-04-25T09:11:05;13.00;7.80;4.00
65556;PMS3003;52200;53.490;14.376;2023-04-25T09:13:31;13.00;6.00;3.00
65556;PMS3003;52200;53.490;14.376;2023-04-25T09:15:57;12.00;5.75;2.75
65556;PMS3003;52200;53.490;14.376;2023-04-25T09:18:26;14.40;6.40;2.80
65556;PMS3003;52200;53.490;14.376;2023-04-25T09:20:56;10.80;5.80;2.00
65556;PMS3003;52200;53.490;14.376;2023-04-25T09:23:30;11.00;6.00;3.00
65556;PMS3003;52200;53.490;14.376;2023-04-25T09:25:57;10.00;5.20;2.60
65556;PMS3003;52200;53.490;14.376;2023-04-25T09:28:23;12.00;6.00;2.50
65556;PMS3003;52200;53.490;14.376;2023-04-25T09:30:54;13.20;7.60;3.00
65556;PMS3003;52200;53.490;14.376;2023-04-25T09:33:27;11.00;6.00;3.00
65556;PMS3003;52200;53.490;14.376;2023-04-25T09:36:00;13.60;7.00;2.80
65556;PMS3003;52200;53.490;14.376;2023-04-25T09:38:28;10.20;5.20;2.00
65556;PMS3003;52200;53.490;14.376;2023-04-25T09:40:55;15.60;6.80;2.60
65556;PMS3003;52200;53.490;14.376;2023-04-25T09:43:22;15.60;7.20;3.00
65556;PMS3003;52200;53.490;14.376;2023-04-25T09:45:48;13.00;9.00;4.00
65556;PMS3003;52200;53.490;14.376;2023-04-25T09:48:21;15.20;7.20;2.00
65556;PMS3003;52200;53.490;14.376;2023-04-25T09:51:08;11.60;4.20;2.00
65556;PMS3003;52200;53.490;14.376;2023-04-25T09:53:37;12.00;6.20;2.00
65556;PMS3003;52200;53.490;14.376;2023-04-25T09:56:06;10.00;3.40;2.00
65556;PMS3003;52200;53.490;14.376;2023-04-25T09:58:34;11.20;5.80;2.60
65556;PMS3003;52200;53.490;14.376;2023-04-25T10:01:02;9.40;4.40;1.40
65556;PMS3003;52200;53.490;14.376;2023-04-25T10:03:29;11.20;4.80;2.00
65556;PMS3003;52200;53.490;14.376;2023-04-25T10:05:56;11.40;3.60;2.00
65556;PMS3003;52200;53.490;14.376;2023-04-25T10:08:24;7.80;3.60;1.40
65556;PMS3003;52200;53.490;14.376;2023-04-25T10:10:52;8.40;4.40;2.00
65556;PMS3003;52200;53.490;14.376;2023-04-25T10:13:17;10.00;4.25;2.00
65556;PMS3003;52200;53.490;14.376;2023-04-25T10:15:43;11.20;5.80;2.00
65556;PMS3003;52200;53.490;14.376;2023-04-25T10:18:10;14.00;6.80;2.60
65556;PMS3003;52200;53.490;14.376;2023-04-25T10:20:36;12.60;6.60;2.00
65556;PMS3003;52200;53.490;14.376;2023-04-25T10:23:11;12.50;7.00;4.00
65556;PMS3003;52200;53.490;14.376;2023-04-25T10:25:38;11.40;6.40;2.00
65556;PMS3003;52200;53.490;14.376;2023-04-25T10:28:05;12.80;6.20;2.80
65556;PMS3003;52200;53.490;14.376;2023-04-25T10:30:31;13.80;7.20;3.00
65556;PMS3003;52200;53.490;14.376;2023-04-25T10:32:56;13.75;6.50;3.50
65556;PMS3003;52200;53.490;14.376;2023-04-25T10:38:04;14.00;5.00;2.00
65556;PMS3003;52200;53.490;14.376;2023-04-25T10:40:38;10.80;6.00;2.00
65556;PMS3003;52200;53.490;14.376;2023-04-25T10:48:51;11.20;4.60;2.00
65556;PMS3003;52200;53.490;14.376;2023-04-25T10:51:21;14.40;6.60;3.00
65556;PMS3003;52200;53.490;14.376;2023-04-25T10:54:04;8.80;3.40;1.00
65556;PMS3003;52200;53.490;14.376;2023-04-25T10:56:38;8.80;4.00;2.00
65556;PMS3003;52200;53.490;14.376;2023-04-25T10:59:12;11.00;5.20;2.20
65556;PMS3003;52200;53.490;14.376;2023-04-25T11:01:44;11.00;4.00;1.00
65556;PMS3003;52200;53.490;14.376;2023-04-25T11:04:23;6.00;2.00;1.00
65556;PMS3003;52200;53.490;14.376;2023-04-25T11:09:28;17.20;10.00;4.80
65556;PMS3003;52200;53.490;14.376;2023-04-25T11:11:55;10.20;4.60;1.80
65556;PMS3003;52200;53.490;14.376;2023-04-25T11:14:22;7.00;4.00;1.00
65556;PMS3003;52200;53.490;14.376;2023-04-25T11:16:52;7.20;3.00;1.00
65556;PMS3003;52200;53.490;14.376;2023-04-25T11:19:21;10.40;4.20;1.20
65556;PMS3003;52200;53.490;14.376;2023-04-25T11:21:46;10.60;4.40;2.00
65556;PMS3003;52200;53.490;14.376;2023-04-25T11:24:12;10.00;5.00;2.00
65556;PMS3003;52200;53.490;14.376;2023-04-25T11:26:41;9.00;3.25;2.00
65556;PMS3003;52200;53.490;14.376;2023-04-25T11:29:08;18.40;10.80;4.60
65556;PMS3003;52200;53.490;14.376;2023-04-25T11:31:34;8.50;2.50;1.25
65556;PMS3003;52200;53.490;14.376;2023-04-25T11:34:00;8.75;3.25;1.00
65556;PMS3003;52200;53.490;14.376;2023-04-25T11:36:25;10.25;6.00;3.00
65556;PMS3003;52200;53.490;14.376;2023-04-25T11:38:52;11.40;3.80;1.80
65556;PMS3003;52200;53.490;14.376;2023-04-25T11:41:18;7.00;2.60;1.00
65556;PMS3003;52200;53.490;14.376;2023-04-25T11:43:45;6.80;3.20;1.80
65556;PMS3003;52200;53.490;14.376;2023-04-25T11:46:12;8.80;2.80;1.00
65556;PMS3003;52200;53.490;14.376;2023-04-25T11:48:39;12.00;3.75;1.00
65556;PMS3003;52200;53.490;14.376;2023-04-25T11:51:05;9.00;4.00;1.20
65556;PMS3003;52200;53.490;14.376;2023-04-25T11:53:31;9.75;3.00;1.00
65556;PMS3003;52200;53.490;14.376;2023-04-25T11:55:56;10.00;3.75;0.50
65556;PMS3003;52200;53.490;14.376;2023-04-25T11:58:22;12.50;5.00;1.50
65556;PMS3003;52200;53.490;14.376;2023-04-25T12:00:47;7.75;3.00;1.00
65556;PMS3003;52200;53.490;14.376;2023-04-25T12:03:13;13.00;3.50;1.00
65556;PMS3003;52200;53.490;14.376;2023-04-25T12:05:38;7.75;3.75;1.00
65556;PMS3003;52200;53.490;14.376;2023-04-25T12:08:14;13.00;3.00;1.00
65556;PMS3003;52200;53.490;14.376;2023-04-25T12:10:41;10.60;3.00;1.00
65556;PMS3003;52200;53.490;14.376;2023-04-25T12:13:21;8.80;2.80;1.00
65556;PMS3003;52200;53.490;14.376;2023-04-25T12:15:51;9.20;5.00;2.00
65556;PMS3003;52200;53.490;14.376;2023-04-25T12:18:20;9.20;4.00;1.00
65556;PMS3003;52200;53.490;14.376;2023-04-25T12:20:48;10.00;2.40;1.00
65556;PMS3003;52200;53.490;14.376;2023-04-25T12:23:13;9.50;3.25;1.00
65556;PMS3003;52200;53.490;14.376;2023-04-25T12:25:40;8.75;4.00;1.00
65556;PMS3003;52200;53.490;14.376;2023-04-25T12:28:22;6.80;2.00;1.00
65556;PMS3003;52200;53.490;14.376;2023-04-25T12:30:56;8.80;3.20;1.80
65556;PMS3003;52200;53.490;14.376;2023-04-25T12:33:23;10.20;3.20;1.40
65556;PMS3003;52200;53.490;14.376;2023-04-25T12:35:49;10.20;3.00;1.00
65556;PMS3003;52200;53.490;14.376;2023-04-25T12:38:25;7.25;3.00;1.50
65556;PMS3003;52200;53.490;14.376;2023-04-25T12:40:56;10.00;3.00;1.00
65556;PMS3003;52200;53.490;14.376;2023-04-25T12:43:23;7.00;3.00;1.00
65556;PMS3003;52200;53.490;14.376;2023-04-25T12:45:50;7.00;3.00;1.00
65556;PMS3003;52200;53.490;14.376;2023-04-25T12:48:20;10.00;3.40;1.00
65556;PMS3003;52200;53.490;14.376;2023-04-25T12:50:48;11.00;5.00;2.20
65556;PMS3003;52200;53.490;14.376;2023-04-25T12:53:19;8.60;3.40;1.20
65556;PMS3003;52200;53.490;14.376;2023-04-25T12:55:45;12.40;4.00;1.80
65556;PMS3003;52200;53.490;14.376;2023-04-25T12:58:12;7.80;2.60;1.00
65556;PMS3003;52200;53.490;14.376;2023-04-25T13:00:38;8.00;4.00;1.40
65556;PMS3003;52200;53.490;14.376;2023-04-25T13:03:03;10.00;5.00;1.25
65556;PMS3003;52200;53.490;14.376;2023-04-25T13:05:29;8.60;4.00;1.60
65556;PMS3003;52200;53.490;14.376;2023-04-25T13:07:55;9.00;4.60;1.80
65556;PMS3003;52200;53.490;14.376;2023-04-25T13:10:22;10.40;4.80;1.00
65556;PMS3003;52200;53.490;14.376;2023-04-25T13:12:48;8.75;3.00;2.00
65556;PMS3003;52200;53.490;14.376;2023-04-25T13:15:14;9.00;3.00;1.00
65556;PMS3003;52200;53.490;14.376;2023-04-25T13:17:40;8.20;2.60;1.00
65556;PMS3003;52200;53.490;14.376;2023-04-25T13:20:07;9.20;4.80;2.00
65556;PMS3003;52200;53.490;14.376;2023-04-25T13:22:38;10.60;4.80;0.40
65556;PMS3003;52200;53.490;14.376;2023-04-25T13:25:05;9.00;5.00;2.00
65556;PMS3003;52200;53.490;14.376;2023-04-25T13:27:32;8.40;4.00;1.80
65556;PMS3003;52200;53.490;14.376;2023-04-25T13:29:59;8.80;3.00;1.00
65556;PMS3003;52200;53.490;14.376;2023-04-25T13:32:32;10.60;4.40;1.80
65556;PMS3003;52200;53.490;14.376;2023-04-25T13:35:02;9.80;4.00;1.00
65556;PMS3003;52200;53.490;14.376;2023-04-25T13:37:28;9.40;4.60;2.00
65556;PMS3003;52200;53.490;14.376;2023-04-25T13:39:55;7.00;3.00;1.00
65556;PMS3003;52200;53.490;14.376;2023-04-25T13:42:21;10.40;4.60;2.00
65556;PMS3003;52200;53.490;14.376;2023-04-25T13:44:48;9.40;4.40;2.00
65556;PMS3003;52200;53.490;14.376;2023-04-25T13:47:13;9.75;3.00;2.00
65556;PMS3003;52200;53.490;14.376;2023-04-25T13:49:39;8.20;4.00;2.00
65556;PMS3003;52200;53.490;14.376;2023-04-25T13:52:05;7.25;3.00;2.00
65556;PMS3003;52200;53.490;14.376;2023-04-25T13:54:31;10.40;5.00;2.00
65556;PMS3003;52200;53.490;14.376;2023-04-25T13:56:56;10.50;4.25;2.75
65556;PMS3003;52200;53.490;14.376;2023-04-25T13:59:24;12.20;7.20;2.60
65556;PMS3003;52200;53.490;14.376;2023-04-25T14:01:50;10.80;4.60;2.00
65556;PMS3003;52200;53.490;14.376;2023-04-25T14:04:16;10.20;5.00;1.80
65556;PMS3003;52200;53.490;14.376;2023-04-25T14:06:41;14.00;6.00;2.00
65556;PMS3003;52200;53.490;14.376;2023-04-25T14:09:07;11.20;4.40;1.40